Time;durP1;ratioP1;P1;durP2;ratioP2;P2;SDS_P1;SDS_P2;PMS_P1;PMS_P2;Temp;Humidity;BMP_temperature;BMP_pressure;BME280_temperature;BME280_humidity;BME280_pressure;Samples;Min_cycle;Max_cycle;Signal;HPM_P1;HPM_P2
2022/03/05 00:01:50;;;;;;;;;;;153.60;1382.40;;;;;;5091794;28;19908;-67
2022/03/05 00:04:15;;;;;;;;;;;153.60;1382.40;;;;;;5094171;28;20314;-67
2022/03/05 00:06:41;;;;;;;;;;;153.60;1382.40;;;;;;5094033;28;19969;-66
2022/03/05 00:09:07;;;;;;;;;;;153.60;1356.80;;;;;;5093808;28;20014;-67
2022/03/05 00:11:32;;;;;;;;;;;153.60;1356.80;;;;;;5093163;28;19965;-67
2022/03/05 00:13:58;;;;;;;;;;;153.60;1356.80;;;;;;5094232;28;20011;-67
2022/03/05 00:16:24;;;;;;;;;;;153.60;1356.80;;;;;;5093764;28;19931;-66
2022/03/05 00:18:50;;;;;;;;;;;153.60;1356.80;;;;;;5090754;28;19941;-68
2022/03/05 00:21:15;;;;;;;;;;;153.60;1356.80;;;;;;5093547;28;20285;-68
2022/03/05 00:23:41;;;;;;;;;;;153.60;1356.80;;;;;;5093993;28;19912;-68
2022/03/05 00:26:07;;;;;;;;;;;128.90;1356.80;;;;;;5093961;28;19908;-68
2022/03/05 00:28:33;;;;;;;;;;;128.90;1356.80;;;;;;5093704;28;19908;-68
2022/03/05 00:31:00;;;;;;;;;;;128.80;1382.40;;;;;;5093746;28;20261;-68
2022/03/05 00:33:26;;;;;;;;;;;128.80;1382.40;;;;;;5093580;28;19916;-66
2022/03/05 00:35:52;;;;;;;;;;;128.80;1382.40;;;;;;5093619;28;20315;-69
2022/03/05 00:38:17;;;;;;;;;;;128.70;1382.40;;;;;;5092983;28;19914;-67
2022/03/05 00:40:44;;;;;;;;;;;128.70;1382.40;;;;;;5094045;28;19967;-68
2022/03/05 00:43:09;;;;;;;;;;;128.60;1382.40;;;;;;5093536;28;19913;-68
2022/03/05 00:45:36;;;;;;;;;;;128.60;1382.40;;;;;;5094370;28;19914;-68
2022/03/05 00:48:02;;;;;;;;;;;128.60;1382.40;;;;;;5094690;28;20007;-68
2022/03/05 00:50:28;;;;;;;;;;;128.50;1408.00;;;;;;5094793;28;20333;-69
2022/03/05 00:52:53;;;;;;;;;;;128.50;1408.00;;;;;;5094302;28;19951;-66
2022/03/05 00:55:19;;;;;;;;;;;128.50;1408.00;;;;;;5094555;28;19915;-66
2022/03/05 00:57:44;;;;;;;;;;;128.50;1408.00;;;;;;5093174;28;20297;-66
2022/03/05 01:00:11;;;;;;;;;;;128.50;1382.40;;;;;;5094402;28;19915;-66
2022/03/05 01:02:37;;;;;;;;;;;128.40;1408.00;;;;;;5094601;28;19923;-66
2022/03/05 01:05:02;;;;;;;;;;;128.30;1382.40;;;;;;5094495;28;19943;-66
2022/03/05 01:07:28;;;;;;;;;;;128.30;1382.40;;;;;;5094061;28;19981;-66
2022/03/05 01:09:53;;;;;;;;;;;128.40;1382.40;;;;;;5093652;28;19912;-66
2022/03/05 01:12:19;;;;;;;;;;;128.30;1382.40;;;;;;5093954;28;20044;-67
2022/03/05 01:14:45;;;;;;;;;;;128.30;1408.00;;;;;;5094118;28;19916;-66
2022/03/05 01:17:10;;;;;;;;;;;128.20;1408.00;;;;;;5094307;28;19914;-66
2022/03/05 01:19:36;;;;;;;;;;;128.20;1408.00;;;;;;5094495;28;19908;-66
2022/03/05 01:22:01;;;;;;;;;;;128.10;1408.00;;;;;;5093828;28;20349;-66
2022/03/05 01:24:27;;;;;;;;;;;128.10;1408.00;;;;;;5094196;28;19913;-66
2022/03/05 01:26:53;;;;;;;;;;;128.10;1408.00;;;;;;5094279;28;19908;-66
2022/03/05 01:29:18;;;;;;;;;;;128.10;1408.00;;;;;;5094059;28;20272;-66
2022/03/05 01:31:44;;;;;;;;;;;128.00;1408.00;;;;;;5092586;28;19908;-66
2022/03/05 01:34:09;;;;;;;;;;;128.00;1408.00;;;;;;5093495;28;20425;-66
2022/03/05 01:36:35;;;;;;;;;;;128.00;1408.00;;;;;;5093373;28;19934;-66
2022/03/05 01:39:00;;;;;;;;;;;128.00;1408.00;;;;;;5093993;28;19908;-66
2022/03/05 01:41:26;;;;;;;;;;;128.00;1433.60;;;;;;5093891;28;19995;-66
2022/03/05 01:43:52;;;;;;;;;;;128.10;1408.00;;;;;;5093982;28;19916;-65
2022/03/05 01:46:27;;;;;;;;;;;128.10;1408.00;;;;;;5094001;28;19908;-65
2022/03/05 01:48:53;;;;;;;;;;;128.10;1408.00;;;;;;5094115;28;19915;-65
2022/03/05 01:51:18;;;;;;;;;;;128.00;1408.00;;;;;;5093959;28;19912;-65
2022/03/05 01:53:44;;;;;;;;;;;128.10;1408.00;;;;;;5093983;28;19959;-64
2022/03/05 01:56:10;;;;;;;;;;;128.00;1408.00;;;;;;5093487;28;19912;-65
2022/03/05 01:58:35;;;;;;;;;;;128.10;1408.00;;;;;;5093811;28;20429;-65
2022/03/05 02:01:01;;;;;;;;;;;128.00;1408.00;;;;;;5093818;28;19908;-65
2022/03/05 02:03:26;;;;;;;;;;;128.00;1408.00;;;;;;5093794;28;19998;-65
2022/03/05 02:05:52;;;;;;;;;;;128.00;1408.00;;;;;;5093915;28;19908;-65
2022/03/05 02:08:17;;;;;;;;;;;128.00;1408.00;;;;;;5093615;28;19920;-65
2022/03/05 02:10:43;;;;;;;;;;;128.00;1408.00;;;;;;5093650;28;20374;-65
2022/03/05 02:13:08;;;;;;;;;;;128.00;1408.00;;;;;;5093587;28;20019;-64
2022/03/05 02:15:34;;;;;;;;;;;128.00;1408.00;;;;;;5092393;28;19908;-66
2022/03/05 02:18:00;;;;;;;;;;;128.00;1408.00;;;;;;5093855;28;20380;-66
2022/03/05 02:20:28;;;;;;;;;;;128.00;1408.00;;;;;;5093786;28;20002;-66
2022/03/05 02:22:55;;;;;;;;;;;128.00;1408.00;;;;;;5090391;28;19931;-64
2022/03/05 02:25:20;;;;;;;;;;;128.00;1408.00;;;;;;5097211;28;20303;-66
2022/03/05 02:27:46;;;;;;;;;;;128.00;1408.00;;;;;;5097352;28;19999;-67
2022/03/05 02:30:12;;;;;;;;;;;128.00;1408.00;;;;;;5096838;28;19915;-64
2022/03/05 02:32:38;;;;;;;;;;;128.00;1408.00;;;;;;5096925;28;20304;-64
2022/03/05 02:35:03;;;;;;;;;;;128.00;1408.00;;;;;;5097174;28;20376;-64
2022/03/05 02:37:29;;;;;;;;;;;128.00;1408.00;;;;;;5096946;28;19931;-65
2022/03/05 02:39:55;;;;;;;;;;;128.00;1408.00;;;;;;5096762;28;19908;-64
2022/03/05 02:42:20;;;;;;;;;;;128.00;1408.00;;;;;;5095585;28;20013;-64
2022/03/05 02:44:46;;;;;;;;;;;128.00;1408.00;;;;;;5097182;28;19947;-64
2022/03/05 02:47:11;;;;;;;;;;;128.00;1408.00;;;;;;5096866;28;19908;-64
2022/03/05 02:49:37;;;;;;;;;;;128.00;1408.00;;;;;;5096543;28;20021;-64
2022/03/05 02:52:03;;;;;;;;;;;103.30;1408.00;;;;;;5096693;28;19908;-64
2022/03/05 02:54:29;;;;;;;;;;;103.30;1408.00;;;;;;5096869;28;19920;-65
2022/03/05 02:56:55;;;;;;;;;;;103.30;1408.00;;;;;;5096294;28;19953;-65
2022/03/05 02:59:20;;;;;;;;;;;103.30;1408.00;;;;;;5096931;28;19908;-64
2022/03/05 03:01:46;;;;;;;;;;;103.30;1408.00;;;;;;5096587;28;20412;-64
2022/03/05 03:04:12;;;;;;;;;;;128.00;1433.60;;;;;;5096806;28;19908;-65
2022/03/05 03:06:37;;;;;;;;;;;128.00;1433.60;;;;;;5094626;28;19908;-64
2022/03/05 03:09:03;;;;;;;;;;;128.00;1433.60;;;;;;5096205;28;19999;-64
2022/03/05 03:11:28;;;;;;;;;;;128.00;1433.60;;;;;;5096529;28;19915;-64
2022/03/05 03:13:54;;;;;;;;;;;128.00;1433.60;;;;;;5097068;28;19923;-64
2022/03/05 03:16:20;;;;;;;;;;;103.30;1408.00;;;;;;5096440;28;19908;-63
2022/03/05 03:18:45;;;;;;;;;;;128.00;1433.60;;;;;;5096679;28;19961;-64
2022/03/05 03:21:11;;;;;;;;;;;103.30;1408.00;;;;;;5096332;28;19908;-64
2022/03/05 03:23:36;;;;;;;;;;;103.30;1408.00;;;;;;5096180;28;20323;-64
2022/03/05 03:26:02;;;;;;;;;;;103.30;1408.00;;;;;;5096317;28;19908;-64
2022/03/05 03:28:27;;;;;;;;;;;103.30;1408.00;;;;;;5095959;28;19908;-64
2022/03/05 03:30:53;;;;;;;;;;;103.30;1408.00;;;;;;5096046;28;20265;-64
2022/03/05 03:33:19;;;;;;;;;;;103.30;1408.00;;;;;;5094362;28;19916;-64
2022/03/05 03:35:44;;;;;;;;;;;103.30;1408.00;;;;;;5096221;28;19908;-64
2022/03/05 03:38:10;;;;;;;;;;;128.00;1433.60;;;;;;5095776;28;19953;-64
2022/03/05 03:40:35;;;;;;;;;;;103.30;1408.00;;;;;;5096095;28;19908;-64
2022/03/05 03:43:01;;;;;;;;;;;103.20;1433.60;;;;;;5095905;28;19930;-64
2022/03/05 03:45:27;;;;;;;;;;;103.20;1433.60;;;;;;5095969;28;20268;-64
2022/03/05 03:47:53;;;;;;;;;;;103.20;1433.60;;;;;;5095722;28;19908;-64
2022/03/05 03:50:20;;;;;;;;;;;103.10;1459.20;;;;;;5094298;28;19961;-63
2022/03/05 03:52:45;;;;;;;;;;;103.00;1459.20;;;;;;5095324;28;19915;-62
2022/03/05 03:55:12;;;;;;;;;;;103.00;1484.80;;;;;;5095619;28;19912;-63
2022/03/05 03:57:38;;;;;;;;;;;103.10;1459.20;;;;;;5095415;28;19915;-62
2022/03/05 04:00:05;;;;;;;;;;;103.10;1459.20;;;;;;5095492;28;20273;-63
2022/03/05 04:02:31;;;;;;;;;;;103.10;1459.20;;;;;;5095421;28;20004;-65
2022/03/05 04:04:56;;;;;;;;;;;103.20;1459.20;;;;;;5095431;28;19914;-65
2022/03/05 04:10:06;;;;;;;;;;;103.20;1459.20;;;;;;5095223;28;19915;-65
2022/03/05 04:12:32;;;;;;;;;;;103.20;1459.20;;;;;;5095320;28;19909;-65
2022/03/05 04:14:58;;;;;;;;;;;103.20;1459.20;;;;;;5095637;28;20011;-65
2022/03/05 04:17:23;;;;;;;;;;;103.20;1459.20;;;;;;5095282;28;20269;-65
2022/03/05 04:19:49;;;;;;;;;;;103.20;1459.20;;;;;;5095287;28;19912;-65
2022/03/05 04:22:14;;;;;;;;;;;103.20;1433.60;;;;;;5095002;28;19911;-63
2022/03/05 04:24:40;;;;;;;;;;;103.10;1459.20;;;;;;5095188;28;19915;-63
2022/03/05 04:27:06;;;;;;;;;;;103.10;1459.20;;;;;;5095054;28;19912;-63
2022/03/05 04:29:32;;;;;;;;;;;103.10;1459.20;;;;;;5094857;28;19915;-63
2022/03/05 04:31:57;;;;;;;;;;;103.10;1459.20;;;;;;5095031;28;19915;-63
2022/03/05 04:34:23;;;;;;;;;;;103.10;1433.60;;;;;;5094968;28;19916;-63
2022/03/05 04:36:48;;;;;;;;;;;103.00;1459.20;;;;;;5094911;28;20297;-63
2022/03/05 04:39:14;;;;;;;;;;;103.00;1459.20;;;;;;5094745;28;20045;-63
2022/03/05 04:41:40;;;;;;;;;;;102.80;1484.80;;;;;;5095179;28;19908;-63
2022/03/05 04:44:06;;;;;;;;;;;102.70;1484.80;;;;;;5094797;28;19915;-63
2022/03/05 04:46:31;;;;;;;;;;;102.60;1510.40;;;;;;5094149;28;19908;-63
2022/03/05 04:48:57;;;;;;;;;;;102.60;1510.40;;;;;;5093640;28;19912;-63
2022/03/05 04:51:23;;;;;;;;;;;102.60;1510.40;;;;;;5093173;28;19915;-63
2022/03/05 04:53:49;;;;;;;;;;;102.70;1510.40;;;;;;5094426;28;20346;-64
2022/03/05 04:56:14;;;;;;;;;;;102.70;1510.40;;;;;;5094521;28;19995;-63
2022/03/05 04:58:40;;;;;;;;;;;102.70;1510.40;;;;;;5094470;28;19909;-64
2022/03/05 05:01:06;;;;;;;;;;;102.80;1484.80;;;;;;5094639;28;19939;-64
2022/03/05 05:03:32;;;;;;;;;;;102.80;1484.80;;;;;;5094584;28;19908;-64
2022/03/05 05:05:58;;;;;;;;;;;102.80;1484.80;;;;;;5094298;28;19908;-64
2022/03/05 05:08:24;;;;;;;;;;;102.80;1484.80;;;;;;5094148;28;19967;-64
2022/03/05 05:10:50;;;;;;;;;;;102.90;1484.80;;;;;;5094328;28;19908;-64
2022/03/05 05:13:15;;;;;;;;;;;102.80;1484.80;;;;;;5094243;28;20262;-64
2022/03/05 05:15:41;;;;;;;;;;;102.80;1484.80;;;;;;5094735;28;19909;-64
2022/03/05 05:18:06;;;;;;;;;;;102.80;1484.80;;;;;;5094455;28;19908;-64
2022/03/05 05:20:32;;;;;;;;;;;102.80;1484.80;;;;;;5092975;28;19909;-64
2022/03/05 05:22:57;;;;;;;;;;;102.80;1484.80;;;;;;5094290;28;19916;-64
2022/03/05 05:25:23;;;;;;;;;;;102.80;1484.80;;;;;;5093727;28;19908;-64
2022/03/05 05:27:48;;;;;;;;;;;102.80;1484.80;;;;;;5094155;28;20373;-64
2022/03/05 05:30:14;;;;;;;;;;;102.80;1484.80;;;;;;5094256;28;19999;-64
2022/03/05 05:32:40;;;;;;;;;;;102.80;1484.80;;;;;;5094011;28;20307;-64
2022/03/05 05:35:06;;;;;;;;;;;102.60;1484.80;;;;;;5093719;28;19916;-63
2022/03/05 05:37:31;;;;;;;;;;;102.50;1510.40;;;;;;5093891;28;19942;-63
2022/03/05 05:39:57;;;;;;;;;;;102.60;1510.40;;;;;;5094177;28;19908;-63
2022/03/05 05:42:23;;;;;;;;;;;102.60;1510.40;;;;;;5094297;28;20364;-63
2022/03/05 05:44:48;;;;;;;;;;;102.60;1510.40;;;;;;5094026;28;19908;-63
2022/03/05 05:47:14;;;;;;;;;;;102.60;1510.40;;;;;;5093936;28;19908;-63
2022/03/05 05:49:39;;;;;;;;;;;102.60;1510.40;;;;;;5094084;28;19912;-63
2022/03/05 05:52:05;;;;;;;;;;;102.60;1510.40;;;;;;5093889;28;19915;-63
2022/03/05 05:54:31;;;;;;;;;;;102.60;1510.40;;;;;;5093925;28;20281;-63
2022/03/05 05:56:56;;;;;;;;;;;102.50;1510.40;;;;;;5093772;28;19908;-63
2022/03/05 05:59:23;;;;;;;;;;;102.40;1536.00;;;;;;5097304;28;19991;-64
2022/03/05 06:01:48;;;;;;;;;;;77.70;1536.00;;;;;;5097876;28;19922;-63
2022/03/05 06:04:14;;;;;;;;;;;77.60;1561.60;;;;;;5096331;28;19995;-64
2022/03/05 06:06:39;;;;;;;;;;;77.60;1561.60;;;;;;5097390;28;19912;-63
2022/03/05 06:09:05;;;;;;;;;;;77.60;1561.60;;;;;;5097179;28;19920;-62
2022/03/05 06:11:31;;;;;;;;;;;77.50;1561.60;;;;;;5097641;28;19961;-62
2022/03/05 06:13:56;;;;;;;;;;;77.60;1561.60;;;;;;5097607;28;20429;-64
2022/03/05 06:16:22;;;;;;;;;;;77.50;1561.60;;;;;;5096942;28;19908;-64
2022/03/05 06:18:48;;;;;;;;;;;77.50;1561.60;;;;;;5097582;28;19977;-63
2022/03/05 06:21:13;;;;;;;;;;;77.50;1587.20;;;;;;5097391;28;19915;-63
2022/03/05 06:23:39;;;;;;;;;;;77.60;1561.60;;;;;;5095974;28;19912;-62
2022/03/05 06:26:05;;;;;;;;;;;77.60;1561.60;;;;;;5095983;28;19915;-63
2022/03/05 06:28:30;;;;;;;;;;;77.60;1561.60;;;;;;5097357;28;20025;-62
2022/03/05 06:30:56;;;;;;;;;;;77.70;1561.60;;;;;;5097315;28;19915;-62
2022/03/05 06:33:22;;;;;;;;;;;77.70;1561.60;;;;;;5097273;28;20011;-62
2022/03/05 06:35:47;;;;;;;;;;;77.60;1587.20;;;;;;5097378;28;19985;-62
2022/03/05 06:38:13;;;;;;;;;;;77.60;1587.20;;;;;;5097202;28;19908;-62
2022/03/05 06:40:38;;;;;;;;;;;77.60;1587.20;;;;;;5097160;28;19947;-62
2022/03/05 06:43:04;;;;;;;;;;;77.60;1587.20;;;;;;5096986;28;20002;-63
2022/03/05 06:45:29;;;;;;;;;;;77.70;1587.20;;;;;;5095779;28;20315;-63
2022/03/05 06:47:55;;;;;;;;;;;77.60;1587.20;;;;;;5096501;28;20388;-63
2022/03/05 06:50:21;;;;;;;;;;;77.50;1612.80;;;;;;5097090;28;20272;-64
2022/03/05 06:52:46;;;;;;;;;;;77.60;1612.80;;;;;;5096060;28;19908;-63
2022/03/05 06:55:14;;;;;;;;;;;77.60;1612.80;;;;;;5096763;28;19920;-63
2022/03/05 06:57:40;;;;;;;;;;;77.60;1612.80;;;;;;5096760;28;19942;-63
2022/03/05 07:00:06;;;;;;;;;;;77.70;1612.80;;;;;;5096564;28;19908;-65
2022/03/05 07:02:32;;;;;;;;;;;77.70;1612.80;;;;;;5096457;28;19995;-64
2022/03/05 07:04:57;;;;;;;;;;;77.70;1612.80;;;;;;5096782;28;19915;-66
2022/03/05 07:07:23;;;;;;;;;;;102.40;1612.80;;;;;;5096494;28;19924;-65
2022/03/05 07:09:49;;;;;;;;;;;102.40;1638.40;;;;;;5096223;28;19957;-64
2022/03/05 07:12:14;;;;;;;;;;;102.40;1612.80;;;;;;5095359;28;20293;-64
2022/03/05 07:14:40;;;;;;;;;;;102.40;1612.80;;;;;;5094028;28;20286;-64
2022/03/05 07:17:05;;;;;;;;;;;102.40;1638.40;;;;;;5094957;28;20002;-65
2022/03/05 07:19:31;;;;;;;;;;;102.50;1638.40;;;;;;5094818;28;20001;-65
2022/03/05 07:21:56;;;;;;;;;;;102.50;1638.40;;;;;;5095119;28;19916;-64
2022/03/05 07:24:22;;;;;;;;;;;102.50;1638.40;;;;;;5094886;28;19912;-64
2022/03/05 07:26:47;;;;;;;;;;;102.50;1638.40;;;;;;5094816;28;19908;-64
2022/03/05 07:29:13;;;;;;;;;;;102.60;1664.00;;;;;;5094742;28;19908;-64
2022/03/05 07:31:39;;;;;;;;;;;102.60;1664.00;;;;;;5095743;28;19916;-64
2022/03/05 07:34:04;;;;;;;;;;;102.70;1664.00;;;;;;5096075;28;19961;-64
2022/03/05 07:36:30;;;;;;;;;;;102.80;1689.60;;;;;;5096144;28;19908;-64
2022/03/05 07:38:56;;;;;;;;;;;102.90;1664.00;;;;;;5096003;28;19912;-64
2022/03/05 07:41:21;;;;;;;;;;;103.00;1664.00;;;;;;5096006;28;20356;-64
2022/03/05 07:43:47;;;;;;;;;;;103.00;1664.00;;;;;;5095578;28;19973;-64
2022/03/05 07:46:12;;;;;;;;;;;103.10;1689.60;;;;;;5095934;28;19912;-64
2022/03/05 07:48:38;;;;;;;;;;;103.20;1664.00;;;;;;5095652;28;20392;-64
2022/03/05 07:51:04;;;;;;;;;;;103.30;1638.40;;;;;;5095070;28;19942;-65
2022/03/05 07:53:31;;;;;;;;;;;128.00;1664.00;;;;;;5095140;28;20285;-64
2022/03/05 07:55:57;;;;;;;;;;;128.10;1689.60;;;;;;5094972;28;19908;-63
2022/03/05 07:58:23;;;;;;;;;;;128.30;1664.00;;;;;;5094086;28;19908;-64
2022/03/05 08:00:48;;;;;;;;;;;128.40;1689.60;;;;;;5095644;28;19908;-65
2022/03/05 08:03:14;;;;;;;;;;;128.50;1664.00;;;;;;5095370;28;19908;-65
2022/03/05 08:05:41;;;;;;;;;;;128.70;1664.00;;;;;;5095507;28;19912;-66
2022/03/05 08:08:07;;;;;;;;;;;128.90;1689.60;;;;;;5094992;28;20015;-62
2022/03/05 08:10:32;;;;;;;;;;;153.70;1664.00;;;;;;5094240;28;19951;-64
2022/03/05 08:12:58;;;;;;;;;;;154.00;1612.80;;;;;;5095598;28;19908;-66
2022/03/05 08:15:23;;;;;;;;;;;154.30;1689.60;;;;;;5094994;28;19961;-63
2022/03/05 08:17:53;;;;;;;;;;;179.20;1536.00;;;;;;5095323;28;19946;-65
2022/03/05 08:20:22;;;;;;;;;;;179.50;1484.80;;;;;;5093648;28;20189;-63
2022/03/05 08:22:48;;;;;;;;;;;179.70;1433.60;;;;;;5095093;28;19908;-65
2022/03/05 08:25:13;;;;;;;;;;;179.90;1382.40;;;;;;5095090;28;20263;-66
2022/03/05 08:27:39;;;;;;;;;;;179.90;1382.40;;;;;;5095237;28;19919;-65
2022/03/05 08:30:05;;;;;;;;;;;179.90;1433.60;;;;;;5095093;28;20268;-66
2022/03/05 08:32:31;;;;;;;;;;;180.00;1382.40;;;;;;5094129;28;19957;-65
2022/03/05 08:34:56;;;;;;;;;;;180.00;1382.40;;;;;;5093414;28;19916;-63
2022/03/05 08:37:22;;;;;;;;;;;180.00;1382.40;;;;;;5093688;28;19939;-66
2022/03/05 08:39:47;;;;;;;;;;;204.80;1382.40;;;;;;5093506;28;19945;-66
2022/03/05 08:42:13;;;;;;;;;;;204.90;1356.80;;;;;;5093384;28;19916;-67
2022/03/05 08:44:39;;;;;;;;;;;204.80;1382.40;;;;;;5093118;28;20379;-66
2022/03/05 08:47:04;;;;;;;;;;;205.00;1382.40;;;;;;5093302;28;19912;-66
2022/03/05 08:49:30;;;;;;;;;;;205.10;1382.40;;;;;;5092003;28;19908;-66
2022/03/05 08:51:56;;;;;;;;;;;205.20;1356.80;;;;;;5093207;28;20269;-66
2022/03/05 08:54:21;;;;;;;;;;;205.20;1356.80;;;;;;5092591;28;20385;-66
2022/03/05 08:56:47;;;;;;;;;;;205.30;1408.00;;;;;;5093104;28;20349;-64
2022/03/05 08:59:13;;;;;;;;;;;205.50;1408.00;;;;;;5092562;28;19909;-64
2022/03/05 09:01:39;;;;;;;;;;;230.40;1510.40;;;;;;5092938;28;19916;-63
2022/03/05 09:04:05;;;;;;;;;;;230.40;1459.20;;;;;;5093075;28;20005;-63
2022/03/05 09:06:30;;;;;;;;;;;230.40;1408.00;;;;;;5093046;28;19915;-65
2022/03/05 09:08:57;;;;;;;;;;;230.40;1408.00;;;;;;5092650;28;20293;-66
2022/03/05 09:11:23;;;;;;;;;;;230.40;1408.00;;;;;;5090604;28;20333;-65
2022/03/05 09:13:49;;;;;;;;;;;230.50;1408.00;;;;;;5092852;28;19954;-65
2022/03/05 09:16:15;;;;;;;;;;;230.50;1433.60;;;;;;5092825;28;19912;-65
2022/03/05 09:18:40;;;;;;;;;;;230.50;1356.80;;;;;;5091540;28;19908;-65
2022/03/05 09:21:07;;;;;;;;;;;230.40;1356.80;;;;;;5092629;28;19908;-65
2022/03/05 09:23:32;;;;;;;;;;;230.40;1356.80;;;;;;5092830;28;19947;-65
2022/03/05 09:25:58;;;;;;;;;;;230.50;1331.20;;;;;;5092712;28;19959;-66
2022/03/05 09:28:23;;;;;;;;;;;230.50;1331.20;;;;;;5092817;28;19909;-65
2022/03/05 09:30:49;;;;;;;;;;;230.50;1331.20;;;;;;5090585;28;19913;-66
2022/03/05 09:33:15;;;;;;;;;;;230.50;1305.60;;;;;;5095777;28;19973;-65
2022/03/05 09:35:41;;;;;;;;;;;230.50;1331.20;;;;;;5097510;28;19914;-66
2022/03/05 09:38:07;;;;;;;;;;;230.50;1305.60;;;;;;5098153;28;20014;-64
2022/03/05 09:40:32;;;;;;;;;;;230.60;1356.80;;;;;;5098352;28;19915;-66
2022/03/05 09:43:00;;;;;;;;;;;230.70;1331.20;;;;;;5097835;28;19960;-66
2022/03/05 09:45:25;;;;;;;;;;;230.70;1331.20;;;;;;5098167;28;19915;-66
2022/03/05 09:47:51;;;;;;;;;;;230.70;1305.60;;;;;;5098182;28;19909;-66
2022/03/05 09:50:16;;;;;;;;;;;230.70;1305.60;;;;;;5098241;28;19908;-66
2022/03/05 09:52:42;;;;;;;;;;;230.80;1305.60;;;;;;5097927;28;19908;-66
2022/03/05 09:55:08;;;;;;;;;;;230.70;1254.40;;;;;;5098084;28;20281;-66
2022/03/05 09:57:34;;;;;;;;;;;230.70;1305.60;;;;;;5097910;28;19914;-66
2022/03/05 09:59:59;;;;;;;;;;;230.80;1331.20;;;;;;5097968;28;20006;-67
2022/03/05 10:02:25;;;;;;;;;;;230.80;1331.20;;;;;;5097969;28;19912;-66
2022/03/05 10:04:51;;;;;;;;;;;230.80;1305.60;;;;;;5097824;28;20262;-66
2022/03/05 10:07:17;;;;;;;;;;;230.80;1280.00;;;;;;5096284;28;19913;-66
2022/03/05 10:09:44;;;;;;;;;;;230.80;1280.00;;;;;;5097608;28;20373;-66
2022/03/05 10:12:28;;;;;;;;;;;230.80;1280.00;;;;;;5097785;28;19973;-66
2022/03/05 10:15:05;;;;;;;;;;;230.80;1280.00;;;;;;5097889;28;19916;-66
2022/03/05 10:17:51;;;;;;;;;;;230.90;1254.40;;;;;;5096986;28;20273;-65
2022/03/05 10:20:17;;;;;;;;;;;230.90;1228.80;;;;;;5053463;28;20350;-65
2022/03/05 10:22:56;;;;;;;;;;;230.90;1254.40;;;;;;5053066;28;19909;-66
2022/03/05 10:25:28;;;;;;;;;;;231.00;1228.80;;;;;;5053269;28;19916;-66
2022/03/05 10:27:59;;;;;;;;;;;231.00;1203.20;;;;;;5053387;28;20369;-66
2022/03/05 10:30:28;;;;;;;;;;;230.90;1203.20;;;;;;5053007;28;19916;-65
2022/03/05 10:32:53;;;;;;;;;;;230.90;1203.20;;;;;;5053314;28;19924;-64
2022/03/05 10:35:19;;;;;;;;;;;230.80;1203.20;;;;;;5053305;28;19932;-66
2022/03/05 10:37:50;;;;;;;;;;;230.90;1254.40;;;;;;5053299;28;19916;-65
2022/03/05 10:40:15;;;;;;;;;;;230.90;1228.80;;;;;;5053524;28;19913;-65
2022/03/05 10:42:48;;;;;;;;;;;231.00;1228.80;;;;;;5053051;28;19970;-65
2022/03/05 10:45:18;;;;;;;;;;;231.00;1203.20;;;;;;5052188;28;19916;-64
2022/03/05 10:47:48;;;;;;;;;;;231.00;1203.20;;;;;;5053051;28;20043;-66
2022/03/05 10:50:27;;;;;;;;;;;231.10;1203.20;;;;;;5054565;28;19913;-66
2022/03/05 10:52:56;;;;;;;;;;;231.10;1177.60;;;;;;5054432;28;19909;-66
2022/03/05 10:55:22;;;;;;;;;;;231.20;1228.80;;;;;;5054039;28;19921;-65
2022/03/05 10:57:55;;;;;;;;;;;231.30;1177.60;;;;;;5083642;28;20364;-64
2022/03/05 11:00:21;;;;;;;;;;;231.30;1203.20;;;;;;5096901;28;19908;-64
2022/03/05 11:02:47;;;;;;;;;;;256.10;1203.20;;;;;;5096644;28;19908;-67
2022/03/05 11:05:13;;;;;;;;;;;256.10;1203.20;;;;;;5095855;28;19998;-65
2022/03/05 11:07:39;;;;;;;;;;;256.20;1203.20;;;;;;5095290;28;20065;-63
2022/03/05 11:10:05;;;;;;;;;;;256.20;1152.00;;;;;;5095111;28;19915;-66
2022/03/05 11:12:32;;;;;;;;;;;256.30;1177.60;;;;;;5095125;28;19942;-70
2022/03/05 11:14:58;;;;;;;;;;;256.40;1177.60;;;;;;5095019;28;19917;-65
2022/03/05 11:17:23;;;;;;;;;;;256.30;1126.40;;;;;;5094992;28;19923;-64
2022/03/05 11:19:50;;;;;;;;;;;256.90;1536.00;;;;;;5095145;28;19908;-64
2022/03/05 11:22:16;;;;;;;;;;;282.00;1459.20;;;;;;5092311;28;19912;-65
2022/03/05 11:24:45;;;;;;;;;;;282.20;1382.40;;;;;;5094771;28;20024;-65
2022/03/05 11:27:14;;;;;;;;;;;282.20;1177.60;;;;;;5094769;28;19920;-66
2022/03/05 11:29:52;;;;;;;;;;;282.00;1100.80;;;;;;5094709;28;19912;-66
2022/03/05 11:32:18;;;;;;;;;;;282.00;1100.80;;;;;;5096232;28;20207;-66
2022/03/05 11:34:45;;;;;;;;;;;281.80;1100.80;;;;;;5095566;28;19916;-65
2022/03/05 11:37:16;;;;;;;;;;;281.80;1100.80;;;;;;5088246;28;19922;-65
2022/03/05 11:39:42;;;;;;;;;;;281.70;1100.80;;;;;;5094118;28;19908;-69
2022/03/05 11:42:09;;;;;;;;;;;281.60;1126.40;;;;;;5095708;28;20369;-68
2022/03/05 11:44:44;;;;;;;;;;;281.60;1100.80;;;;;;5095703;28;19915;-66
2022/03/05 11:47:19;;;;;;;;;;;256.90;1075.20;;;;;;5095331;28;19951;-65
2022/03/05 11:50:00;;;;;;;;;;;256.80;1100.80;;;;;;5095802;28;20269;-65
2022/03/05 11:52:41;;;;;;;;;;;256.70;1075.20;;;;;;5095665;28;19908;-65
2022/03/05 11:55:16;;;;;;;;;;;256.60;1075.20;;;;;;5095192;28;19999;-65
2022/03/05 11:57:42;;;;;;;;;;;256.60;1100.80;;;;;;5095374;28;19909;-65
2022/03/05 12:00:08;;;;;;;;;;;256.60;1100.80;;;;;;5095241;28;20332;-64
2022/03/05 12:02:44;;;;;;;;;;;256.60;1100.80;;;;;;5095034;28;20340;-64
2022/03/05 12:05:09;;;;;;;;;;;256.70;1100.80;;;;;;5095308;28;19916;-65
2022/03/05 12:07:41;;;;;;;;;;;256.70;1100.80;;;;;;5095209;28;19918;-66
2022/03/05 12:10:14;;;;;;;;;;;256.60;1126.40;;;;;;5095048;28;20002;-64
2022/03/05 12:12:58;;;;;;;;;;;256.60;1126.40;;;;;;5095160;28;19912;-64
2022/03/05 12:15:40;;;;;;;;;;;256.60;1100.80;;;;;;5093679;28;19923;-64
2022/03/05 12:18:06;;;;;;;;;;;256.50;1100.80;;;;;;5095179;28;19961;-65
2022/03/05 12:20:36;;;;;;;;;;;256.60;1126.40;;;;;;5095087;28;19912;-63
2022/03/05 12:23:04;;;;;;;;;;;256.70;1152.00;;;;;;5094300;28;19915;-63
2022/03/05 12:25:32;;;;;;;;;;;256.70;1126.40;;;;;;5094506;28;19912;-63
2022/03/05 12:27:58;;;;;;;;;;;256.60;1100.80;;;;;;5094436;28;19950;-63
2022/03/05 12:30:29;;;;;;;;;;;256.60;1100.80;;;;;;5094476;28;19999;-63
2022/03/05 12:32:58;;;;;;;;;;;256.60;1075.20;;;;;;5093955;28;20361;-64
2022/03/05 12:35:24;;;;;;;;;;;256.50;1075.20;;;;;;5092867;28;19916;-63
2022/03/05 12:37:50;;;;;;;;;;;256.50;1100.80;;;;;;5093358;28;19924;-63
2022/03/05 12:40:15;;;;;;;;;;;256.50;1126.40;;;;;;5093034;28;19915;-64
2022/03/05 12:42:46;;;;;;;;;;;256.60;1075.20;;;;;;5091212;28;20385;-63
2022/03/05 12:45:15;;;;;;;;;;;256.60;1100.80;;;;;;5093306;28;19912;-63
2022/03/05 12:47:41;;;;;;;;;;;256.60;1100.80;;;;;;5091109;28;19912;-63
2022/03/05 12:50:22;;;;;;;;;;;256.70;1100.80;;;;;;5093459;28;20384;-62
2022/03/05 12:52:58;;;;;;;;;;;256.70;1100.80;;;;;;5092081;28;19940;-63
2022/03/05 12:55:28;;;;;;;;;;;256.70;1075.20;;;;;;5093232;28;20387;-63
2022/03/05 12:57:56;;;;;;;;;;;256.70;1075.20;;;;;;5094112;28;19915;-62
2022/03/05 13:00:21;;;;;;;;;;;256.60;1075.20;;;;;;5090525;28;19958;-63
2022/03/05 13:02:49;;;;;;;;;;;256.70;1075.20;;;;;;5093795;28;19947;-63
2022/03/05 13:05:15;;;;;;;;;;;256.70;1075.20;;;;;;5093749;28;19909;-62
2022/03/05 13:07:40;;;;;;;;;;;256.60;1100.80;;;;;;5092967;28;19915;-63
2022/03/05 13:10:07;;;;;;;;;;;256.60;1075.20;;;;;;5093671;28;20358;-62
2022/03/05 13:12:40;;;;;;;;;;;256.60;1100.80;;;;;;5094055;28;19929;-62
2022/03/05 13:15:06;;;;;;;;;;;256.60;1100.80;;;;;;5093374;28;19927;-63
2022/03/05 13:17:32;;;;;;;;;;;256.60;1100.80;;;;;;5092451;28;19961;-63
2022/03/05 13:20:01;;;;;;;;;;;256.60;1100.80;;;;;;5093378;28;19999;-63
2022/03/05 13:22:27;;;;;;;;;;;256.70;1100.80;;;;;;5093106;28;20002;-63
2022/03/05 13:24:53;;;;;;;;;;;256.70;1100.80;;;;;;5092438;28;19912;-63
2022/03/05 13:27:26;;;;;;;;;;;256.70;1100.80;;;;;;5093066;28;19908;-62
2022/03/05 13:29:52;;;;;;;;;;;256.60;1100.80;;;;;;5093453;28;19944;-63
2022/03/05 13:32:17;;;;;;;;;;;256.70;1100.80;;;;;;5093561;28;19919;-63
2022/03/05 13:34:43;;;;;;;;;;;256.70;1100.80;;;;;;5092970;28;19920;-63
2022/03/05 13:37:09;;;;;;;;;;;256.70;1100.80;;;;;;5092585;28;19972;-64
2022/03/05 13:39:35;;;;;;;;;;;256.70;1100.80;;;;;;5093416;28;20756;-64
2022/03/05 13:42:09;;;;;;;;;;;256.70;1100.80;;;;;;5093413;28;19954;-64